sensor_id;sensor_type;location;lat;lon;timestamp;temperature;humidity
52731;DHT22;38624;53.242;6.974;2023-05-09T00:01:08;15.70;99.90
52731;DHT22;38624;53.242;6.974;2023-05-09T00:03:34;15.70;99.90
52731;DHT22;38624;53.242;6.974;2023-05-09T00:06:00;15.80;99.90
52731;DHT22;38624;53.242;6.974;2023-05-09T00:08:26;15.80;99.90
52731;DHT22;38624;53.242;6.974;2023-05-09T00:10:52;15.80;99.90
52731;DHT22;38624;53.242;6.974;2023-05-09T00:13:18;15.80;99.90
52731;DHT22;38624;53.242;6.974;2023-05-09T00:15:43;15.80;99.90
52731;DHT22;38624;53.242;6.974;2023-05-09T00:18:09;15.80;99.90
52731;DHT22;38624;53.242;6.974;2023-05-09T00:20:35;15.70;99.90
52731;DHT22;38624;53.242;6.974;2023-05-09T00:23:01;15.70;99.90
52731;DHT22;38624;53.242;6.974;2023-05-09T00:25:26;15.60;99.90
52731;DHT22;38624;53.242;6.974;2023-05-09T00:27:52;15.50;99.90
52731;DHT22;38624;53.242;6.974;2023-05-09T00:30:17;15.50;99.90
52731;DHT22;38624;53.242;6.974;2023-05-09T00:32:43;15.50;99.90
52731;DHT22;38624;53.242;6.974;2023-05-09T00:35:09;15.40;99.90
52731;DHT22;38624;53.242;6.974;2023-05-09T00:37:34;15.30;99.90
52731;DHT22;38624;53.242;6.974;2023-05-09T00:40:00;15.30;99.90
52731;DHT22;38624;53.242;6.974;2023-05-09T00:42:26;15.20;99.90
52731;DHT22;38624;53.242;6.974;2023-05-09T00:44:51;15.20;99.90
52731;DHT22;38624;53.242;6.974;2023-05-09T00:47:17;15.20;99.90
52731;DHT22;38624;53.242;6.974;2023-05-09T00:49:43;15.20;99.90
52731;DHT22;38624;53.242;6.974;2023-05-09T00:52:08;15.10;99.90
52731;DHT22;38624;53.242;6.974;2023-05-09T00:54:34;15.20;99.90
52731;DHT22;38624;53.242;6.974;2023-05-09T00:56:59;15.20;99.90
52731;DHT22;38624;53.242;6.974;2023-05-09T00:59:25;15.20;99.90
52731;DHT22;38624;53.242;6.974;2023-05-09T01:01:51;15.20;99.90
52731;DHT22;38624;53.242;6.974;2023-05-09T01:04:17;15.20;99.90
52731;DHT22;38624;53.242;6.974;2023-05-09T01:07:05;15.20;99.90
52731;DHT22;38624;53.242;6.974;2023-05-09T01:09:31;15.20;99.90
52731;DHT22;38624;53.242;6.974;2023-05-09T01:16:58;15.20;99.90
52731;DHT22;38624;53.242;6.974;2023-05-09T01:19:41;15.10;99.90
52731;DHT22;38624;53.242;6.974;2023-05-09T01:22:10;15.10;99.90
52731;DHT22;38624;53.242;6.974;2023-05-09T01:24:50;15.00;99.90
52731;DHT22;38624;53.242;6.974;2023-05-09T01:27:32;15.00;99.90
52731;DHT22;38624;53.242;6.974;2023-05-09T01:30:01;15.00;99.90
52731;DHT22;38624;53.242;6.974;2023-05-09T01:32:27;15.00;99.90
52731;DHT22;38624;53.242;6.974;2023-05-09T01:34:54;15.00;99.90
52731;DHT22;38624;53.242;6.974;2023-05-09T01:37:33;15.00;99.90
52731;DHT22;38624;53.242;6.974;2023-05-09T01:40:03;15.00;99.90
52731;DHT22;38624;53.242;6.974;2023-05-09T01:42:35;14.90;99.90
52731;DHT22;38624;53.242;6.974;2023-05-09T01:45:02;14.90;99.90
52731;DHT22;38624;53.242;6.974;2023-05-09T01:47:29;14.80;99.90
52731;DHT22;38624;53.242;6.974;2023-05-09T01:49:54;14.80;99.90
52731;DHT22;38624;53.242;6.974;2023-05-09T01:52:21;14.80;99.90
52731;DHT22;38624;53.242;6.974;2023-05-09T01:54:47;14.80;99.90
52731;DHT22;38624;53.242;6.974;2023-05-09T01:57:13;14.80;99.90
52731;DHT22;38624;53.242;6.974;2023-05-09T01:59:43;14.80;99.90
52731;DHT22;38624;53.242;6.974;2023-05-09T02:02:08;14.80;99.90
52731;DHT22;38624;53.242;6.974;2023-05-09T02:04:34;14.70;99.90
52731;DHT22;38624;53.242;6.974;2023-05-09T02:07:00;14.70;99.90
52731;DHT22;38624;53.242;6.974;2023-05-09T02:09:26;14.60;99.90
52731;DHT22;38624;53.242;6.974;2023-05-09T02:11:52;14.60;99.90
52731;DHT22;38624;53.242;6.974;2023-05-09T02:14:18;14.50;99.90
52731;DHT22;38624;53.242;6.974;2023-05-09T02:16:43;14.50;99.90
52731;DHT22;38624;53.242;6.974;2023-05-09T02:19:09;14.50;99.90
52731;DHT22;38624;53.242;6.974;2023-05-09T02:21:35;14.50;99.90
52731;DHT22;38624;53.242;6.974;2023-05-09T02:24:00;14.50;99.90
52731;DHT22;38624;53.242;6.974;2023-05-09T02:26:26;14.50;99.90
52731;DHT22;38624;53.242;6.974;2023-05-09T02:28:53;14.50;99.90
52731;DHT22;38624;53.242;6.974;2023-05-09T02:31:20;14.50;99.90
52731;DHT22;38624;53.242;6.974;2023-05-09T02:33:47;14.60;99.90
52731;DHT22;38624;53.242;6.974;2023-05-09T02:36:13;14.60;99.90
52731;DHT22;38624;53.242;6.974;2023-05-09T02:38:39;14.60;99.90
52731;DHT22;38624;53.242;6.974;2023-05-09T02:41:06;14.60;99.90
52731;DHT22;38624;53.242;6.974;2023-05-09T02:43:31;14.60;99.90
52731;DHT22;38624;53.242;6.974;2023-05-09T02:45:57;14.60;99.90
52731;DHT22;38624;53.242;6.974;2023-05-09T02:48:23;14.60;99.90
52731;DHT22;38624;53.242;6.974;2023-05-09T02:50:48;14.60;99.90
52731;DHT22;38624;53.242;6.974;2023-05-09T02:53:14;14.60;99.90
52731;DHT22;38624;53.242;6.974;2023-05-09T02:55:39;14.60;99.90
52731;DHT22;38624;53.242;6.974;2023-05-09T02:58:06;14.60;99.90
52731;DHT22;38624;53.242;6.974;2023-05-09T03:00:32;14.60;99.90
52731;DHT22;38624;53.242;6.974;2023-05-09T03:02:57;14.60;99.90
52731;DHT22;38624;53.242;6.974;2023-05-09T03:05:24;14.50;99.90
52731;DHT22;38624;53.242;6.974;2023-05-09T03:07:49;14.50;99.90
52731;DHT22;38624;53.242;6.974;2023-05-09T03:10:16;14.60;99.90
52731;DHT22;38624;53.242;6.974;2023-05-09T03:12:41;14.50;99.90
52731;DHT22;38624;53.242;6.974;2023-05-09T03:15:08;14.50;99.90
52731;DHT22;38624;53.242;6.974;2023-05-09T03:17:33;14.50;99.90
52731;DHT22;38624;53.242;6.974;2023-05-09T03:19:59;14.50;99.90
52731;DHT22;38624;53.242;6.974;2023-05-09T03:22:25;14.50;99.90
52731;DHT22;38624;53.242;6.974;2023-05-09T03:24:50;14.50;99.90
52731;DHT22;38624;53.242;6.974;2023-05-09T03:27:16;14.50;99.90
52731;DHT22;38624;53.242;6.974;2023-05-09T03:29:42;14.50;99.90
52731;DHT22;38624;53.242;6.974;2023-05-09T03:32:07;14.50;99.90
52731;DHT22;38624;53.242;6.974;2023-05-09T03:34:33;14.50;99.90
52731;DHT22;38624;53.242;6.974;2023-05-09T03:36:58;14.50;99.90
52731;DHT22;38624;53.242;6.974;2023-05-09T03:39:24;14.50;99.90
52731;DHT22;38624;53.242;6.974;2023-05-09T03:41:49;14.50;99.90
52731;DHT22;38624;53.242;6.974;2023-05-09T03:44:15;14.60;99.90
52731;DHT22;38624;53.242;6.974;2023-05-09T03:46:41;14.60;99.90
52731;DHT22;38624;53.242;6.974;2023-05-09T03:49:06;14.60;99.90
52731;DHT22;38624;53.242;6.974;2023-05-09T03:51:32;14.60;99.90
52731;DHT22;38624;53.242;6.974;2023-05-09T03:53:57;14.50;99.90
52731;DHT22;38624;53.242;6.974;2023-05-09T03:56:23;14.50;99.90
52731;DHT22;38624;53.242;6.974;2023-05-09T03:58:48;14.50;99.90
52731;DHT22;38624;53.242;6.974;2023-05-09T04:01:14;14.40;99.90
52731;DHT22;38624;53.242;6.974;2023-05-09T04:03:40;14.40;99.90
52731;DHT22;38624;53.242;6.974;2023-05-09T04:06:05;14.40;99.90
52731;DHT22;38624;53.242;6.974;2023-05-09T04:08:31;14.40;99.90
52731;DHT22;38624;53.242;6.974;2023-05-09T04:10:57;14.40;99.90
52731;DHT22;38624;53.242;6.974;2023-05-09T04:13:22;14.40;99.90
52731;DHT22;38624;53.242;6.974;2023-05-09T04:15:48;14.40;99.90
52731;DHT22;38624;53.242;6.974;2023-05-09T04:18:14;14.40;99.90
52731;DHT22;38624;53.242;6.974;2023-05-09T04:20:39;14.40;99.90
52731;DHT22;38624;53.242;6.974;2023-05-09T04:23:05;14.40;99.90
52731;DHT22;38624;53.242;6.974;2023-05-09T04:25:31;14.40;99.90
52731;DHT22;38624;53.242;6.974;2023-05-09T04:27:56;14.40;99.90
52731;DHT22;38624;53.242;6.974;2023-05-09T04:30:22;14.40;99.90
52731;DHT22;38624;53.242;6.974;2023-05-09T04:32:51;14.50;99.90
52731;DHT22;38624;53.242;6.974;2023-05-09T04:35:17;14.50;99.90
52731;DHT22;38624;53.242;6.974;2023-05-09T04:37:43;14.50;99.90
52731;DHT22;38624;53.242;6.974;2023-05-09T04:40:09;14.60;99.90
52731;DHT22;38624;53.242;6.974;2023-05-09T04:42:34;14.60;99.90
52731;DHT22;38624;53.242;6.974;2023-05-09T04:45:00;14.60;99.90
52731;DHT22;38624;53.242;6.974;2023-05-09T04:47:26;14.70;99.90
52731;DHT22;38624;53.242;6.974;2023-05-09T04:49:51;14.70;99.90
52731;DHT22;38624;53.242;6.974;2023-05-09T04:52:17;14.70;99.90
52731;DHT22;38624;53.242;6.974;2023-05-09T04:54:42;14.70;99.90
52731;DHT22;38624;53.242;6.974;2023-05-09T04:57:08;14.70;99.90
52731;DHT22;38624;53.242;6.974;2023-05-09T04:59:34;14.70;99.90
52731;DHT22;38624;53.242;6.974;2023-05-09T05:02:00;14.70;99.90
52731;DHT22;38624;53.242;6.974;2023-05-09T05:04:25;14.70;99.90
52731;DHT22;38624;53.242;6.974;2023-05-09T05:06:52;14.70;99.90
52731;DHT22;38624;53.242;6.974;2023-05-09T05:09:18;14.80;99.90
52731;DHT22;38624;53.242;6.974;2023-05-09T05:11:43;14.80;99.90
52731;DHT22;38624;53.242;6.974;2023-05-09T05:14:09;14.80;99.90
52731;DHT22;38624;53.242;6.974;2023-05-09T05:16:35;14.80;99.90
52731;DHT22;38624;53.242;6.974;2023-05-09T05:19:00;14.90;99.90
52731;DHT22;38624;53.242;6.974;2023-05-09T05:21:26;14.90;99.90
52731;DHT22;38624;53.242;6.974;2023-05-09T05:23:51;15.00;99.90
52731;DHT22;38624;53.242;6.974;2023-05-09T05:26:17;15.00;99.90
52731;DHT22;38624;53.242;6.974;2023-05-09T05:28:42;14.80;99.90
52731;DHT22;38624;53.242;6.974;2023-05-09T05:31:08;15.10;99.90
52731;DHT22;38624;53.242;6.974;2023-05-09T05:33:33;15.10;99.90
52731;DHT22;38624;53.242;6.974;2023-05-09T05:35:59;15.20;99.90
52731;DHT22;38624;53.242;6.974;2023-05-09T05:38:25;15.30;99.90
52731;DHT22;38624;53.242;6.974;2023-05-09T05:40:50;15.40;99.90
52731;DHT22;38624;53.242;6.974;2023-05-09T05:43:16;15.40;99.90
52731;DHT22;38624;53.242;6.974;2023-05-09T05:45:41;15.50;99.90
52731;DHT22;38624;53.242;6.974;2023-05-09T05:48:07;15.60;99.90
52731;DHT22;38624;53.242;6.974;2023-05-09T05:50:32;15.80;99.90
52731;DHT22;38624;53.242;6.974;2023-05-09T05:52:58;15.90;99.90
52731;DHT22;38624;53.242;6.974;2023-05-09T05:55:23;16.00;99.90
52731;DHT22;38624;53.242;6.974;2023-05-09T05:57:49;16.00;99.90
52731;DHT22;38624;53.242;6.974;2023-05-09T06:00:15;16.20;99.90
52731;DHT22;38624;53.242;6.974;2023-05-09T06:02:41;16.20;99.90
52731;DHT22;38624;53.242;6.974;2023-05-09T06:05:08;16.30;99.90
52731;DHT22;38624;53.242;6.974;2023-05-09T06:07:34;16.40;99.90
52731;DHT22;38624;53.242;6.974;2023-05-09T06:09:59;16.40;99.90
52731;DHT22;38624;53.242;6.974;2023-05-09T06:12:25;16.50;99.90
52731;DHT22;38624;53.242;6.974;2023-05-09T06:14:50;16.50;99.90
52731;DHT22;38624;53.242;6.974;2023-05-09T06:17:16;16.50;99.90
52731;DHT22;38624;53.242;6.974;2023-05-09T06:19:42;16.50;99.90
52731;DHT22;38624;53.242;6.974;2023-05-09T06:22:07;16.60;99.90
52731;DHT22;38624;53.242;6.974;2023-05-09T06:24:33;16.60;99.90
52731;DHT22;38624;53.242;6.974;2023-05-09T06:26:58;16.70;99.90
52731;DHT22;38624;53.242;6.974;2023-05-09T06:29:24;16.70;99.90
52731;DHT22;38624;53.242;6.974;2023-05-09T06:31:50;16.70;99.90
52731;DHT22;38624;53.242;6.974;2023-05-09T06:34:15;16.80;99.90
52731;DHT22;38624;53.242;6.974;2023-05-09T06:36:41;16.80;99.90
52731;DHT22;38624;53.242;6.974;2023-05-09T06:39:06;16.90;99.90
52731;DHT22;38624;53.242;6.974;2023-05-09T06:41:32;16.90;99.90
52731;DHT22;38624;53.242;6.974;2023-05-09T06:43:57;16.90;99.90
52731;DHT22;38624;53.242;6.974;2023-05-09T06:46:23;16.90;99.90
52731;DHT22;38624;53.242;6.974;2023-05-09T06:48:49;17.00;99.90
52731;DHT22;38624;53.242;6.974;2023-05-09T06:51:14;17.00;99.90
52731;DHT22;38624;53.242;6.974;2023-05-09T06:53:40;17.00;99.90
52731;DHT22;38624;53.242;6.974;2023-05-09T06:56:06;17.00;99.90
52731;DHT22;38624;53.242;6.974;2023-05-09T06:58:31;17.00;99.90
52731;DHT22;38624;53.242;6.974;2023-05-09T07:00:57;17.00;99.90
52731;DHT22;38624;53.242;6.974;2023-05-09T07:03:23;17.00;99.90
52731;DHT22;38624;53.242;6.974;2023-05-09T07:05:48;17.10;99.90
52731;DHT22;38624;53.242;6.974;2023-05-09T07:08:14;17.20;99.90
52731;DHT22;38624;53.242;6.974;2023-05-09T07:10:39;17.40;99.90
52731;DHT22;38624;53.242;6.974;2023-05-09T07:13:05;17.50;99.90
52731;DHT22;38624;53.242;6.974;2023-05-09T07:15:30;17.70;99.90
52731;DHT22;38624;53.242;6.974;2023-05-09T07:17:56;18.00;99.90
52731;DHT22;38624;53.242;6.974;2023-05-09T07:20:22;18.20;99.90
52731;DHT22;38624;53.242;6.974;2023-05-09T07:22:47;18.40;99.90
52731;DHT22;38624;53.242;6.974;2023-05-09T07:25:13;18.60;99.90
52731;DHT22;38624;53.242;6.974;2023-05-09T07:27:38;18.70;99.90
52731;DHT22;38624;53.242;6.974;2023-05-09T07:30:05;18.80;99.90
52731;DHT22;38624;53.242;6.974;2023-05-09T07:32:31;18.80;99.90
52731;DHT22;38624;53.242;6.974;2023-05-09T07:34:57;18.80;99.90
52731;DHT22;38624;53.242;6.974;2023-05-09T07:37:23;18.80;99.90
52731;DHT22;38624;53.242;6.974;2023-05-09T07:39:48;18.80;99.90
52731;DHT22;38624;53.242;6.974;2023-05-09T07:42:14;18.70;99.90
52731;DHT22;38624;53.242;6.974;2023-05-09T07:44:40;18.60;99.90
52731;DHT22;38624;53.242;6.974;2023-05-09T07:47:06;18.50;99.90
52731;DHT22;38624;53.242;6.974;2023-05-09T07:49:33;18.40;99.90
52731;DHT22;38624;53.242;6.974;2023-05-09T07:51:59;18.40;99.90
52731;DHT22;38624;53.242;6.974;2023-05-09T07:54:25;18.40;99.90
52731;DHT22;38624;53.242;6.974;2023-05-09T07:56:50;18.30;99.90
52731;DHT22;38624;53.242;6.974;2023-05-09T07:59:16;18.30;99.90
52731;DHT22;38624;53.242;6.974;2023-05-09T08:01:42;18.20;99.90
52731;DHT22;38624;53.242;6.974;2023-05-09T08:04:08;18.20;99.90
52731;DHT22;38624;53.242;6.974;2023-05-09T08:06:34;18.20;99.90
52731;DHT22;38624;53.242;6.974;2023-05-09T08:09:00;18.20;99.90
52731;DHT22;38624;53.242;6.974;2023-05-09T08:11:25;18.10;99.90
52731;DHT22;38624;53.242;6.974;2023-05-09T08:13:52;18.10;99.90
52731;DHT22;38624;53.242;6.974;2023-05-09T08:16:17;18.20;99.90
52731;DHT22;38624;53.242;6.974;2023-05-09T08:18:43;18.20;99.90
52731;DHT22;38624;53.242;6.974;2023-05-09T08:21:09;18.30;99.90
52731;DHT22;38624;53.242;6.974;2023-05-09T08:23:34;18.40;99.90
52731;DHT22;38624;53.242;6.974;2023-05-09T08:26:00;18.40;99.90
52731;DHT22;38624;53.242;6.974;2023-05-09T08:28:25;18.40;99.90
52731;DHT22;38624;53.242;6.974;2023-05-09T08:30:53;18.30;99.90
52731;DHT22;38624;53.242;6.974;2023-05-09T08:33:19;18.20;99.90
52731;DHT22;38624;53.242;6.974;2023-05-09T08:35:44;18.10;99.90
52731;DHT22;38624;53.242;6.974;2023-05-09T08:38:14;18.10;99.90
52731;DHT22;38624;53.242;6.974;2023-05-09T08:40:40;18.00;99.90
52731;DHT22;38624;53.242;6.974;2023-05-09T08:43:05;18.00;99.90
52731;DHT22;38624;53.242;6.974;2023-05-09T08:45:32;18.00;99.90
52731;DHT22;38624;53.242;6.974;2023-05-09T08:47:58;17.90;99.90
52731;DHT22;38624;53.242;6.974;2023-05-09T08:50:26;17.90;99.90
52731;DHT22;38624;53.242;6.974;2023-05-09T08:52:52;17.90;99.90
52731;DHT22;38624;53.242;6.974;2023-05-09T08:55:18;17.90;99.90
52731;DHT22;38624;53.242;6.974;2023-05-09T08:57:44;17.90;99.90
52731;DHT22;38624;53.242;6.974;2023-05-09T09:00:10;17.90;99.90
52731;DHT22;38624;53.242;6.974;2023-05-09T09:02:36;18.00;99.90
52731;DHT22;38624;53.242;6.974;2023-05-09T09:05:04;18.00;99.90
52731;DHT22;38624;53.242;6.974;2023-05-09T09:07:32;18.10;99.90
52731;DHT22;38624;53.242;6.974;2023-05-09T09:09:58;18.20;99.90
52731;DHT22;38624;53.242;6.974;2023-05-09T09:12:24;18.40;99.90
52731;DHT22;38624;53.242;6.974;2023-05-09T09:14:51;18.80;99.90
52731;DHT22;38624;53.242;6.974;2023-05-09T09:17:18;19.00;99.90
52731;DHT22;38624;53.242;6.974;2023-05-09T09:19:46;19.30;99.90
52731;DHT22;38624;53.242;6.974;2023-05-09T09:22:14;19.70;99.90
52731;DHT22;38624;53.242;6.974;2023-05-09T09:24:40;20.00;99.90
52731;DHT22;38624;53.242;6.974;2023-05-09T09:27:06;20.40;99.90
52731;DHT22;38624;53.242;6.974;2023-05-09T09:29:47;20.80;99.90
52731;DHT22;38624;53.242;6.974;2023-05-09T09:32:12;21.10;99.90
52731;DHT22;38624;53.242;6.974;2023-05-09T09:34:38;21.40;99.90
52731;DHT22;38624;53.242;6.974;2023-05-09T09:37:04;21.40;99.90
52731;DHT22;38624;53.242;6.974;2023-05-09T09:39:30;21.50;99.90
52731;DHT22;38624;53.242;6.974;2023-05-09T09:41:56;21.40;99.90
52731;DHT22;38624;53.242;6.974;2023-05-09T09:44:26;21.40;99.90
52731;DHT22;38624;53.242;6.974;2023-05-09T09:46:53;21.30;99.90
52731;DHT22;38624;53.242;6.974;2023-05-09T09:49:20;21.20;99.90
52731;DHT22;38624;53.242;6.974;2023-05-09T09:51:52;21.10;99.90
52731;DHT22;38624;53.242;6.974;2023-05-09T09:54:18;21.00;99.90
52731;DHT22;38624;53.242;6.974;2023-05-09T09:56:45;21.00;99.90
52731;DHT22;38624;53.242;6.974;2023-05-09T09:59:14;20.90;99.90
52731;DHT22;38624;53.242;6.974;2023-05-09T10:04:29;20.60;99.90
52731;DHT22;38624;53.242;6.974;2023-05-09T10:06:59;20.50;99.90
52731;DHT22;38624;53.242;6.974;2023-05-09T10:09:26;20.40;99.90
52731;DHT22;38624;53.242;6.974;2023-05-09T10:11:53;20.20;99.90
52731;DHT22;38624;53.242;6.974;2023-05-09T10:14:19;20.20;99.90
52731;DHT22;38624;53.242;6.974;2023-05-09T10:16:46;20.00;99.90
52731;DHT22;38624;53.242;6.974;2023-05-09T10:19:13;20.00;99.90
52731;DHT22;38624;53.242;6.974;2023-05-09T10:21:41;20.00;99.90
52731;DHT22;38624;53.242;6.974;2023-05-09T10:24:07;20.00;99.90
52731;DHT22;38624;53.242;6.974;2023-05-09T10:26:33;19.90;99.90
52731;DHT22;38624;53.242;6.974;2023-05-09T10:29:03;19.90;99.90
52731;DHT22;38624;53.242;6.974;2023-05-09T10:31:31;19.90;99.90
52731;DHT22;38624;53.242;6.974;2023-05-09T10:33:59;19.80;99.90
52731;DHT22;38624;53.242;6.974;2023-05-09T10:36:26;19.80;99.90
52731;DHT22;38624;53.242;6.974;2023-05-09T10:38:53;19.80;99.90
52731;DHT22;38624;53.242;6.974;2023-05-09T10:41:19;19.80;99.90
52731;DHT22;38624;53.242;6.974;2023-05-09T10:43:46;19.90;99.90
52731;DHT22;38624;53.242;6.974;2023-05-09T10:46:12;20.10;99.90
52731;DHT22;38624;53.242;6.974;2023-05-09T10:48:37;20.50;99.90
52731;DHT22;38624;53.242;6.974;2023-05-09T10:51:04;21.00;99.90
52731;DHT22;38624;53.242;6.974;2023-05-09T10:53:43;21.40;99.90
52731;DHT22;38624;53.242;6.974;2023-05-09T10:56:20;21.60;99.90
52731;DHT22;38624;53.242;6.974;2023-05-09T10:58:46;21.60;99.90
52731;DHT22;38624;53.242;6.974;2023-05-09T11:01:12;21.40;99.90
52731;DHT22;38624;53.242;6.974;2023-05-09T11:03:57;21.20;99.90
52731;DHT22;38624;53.242;6.974;2023-05-09T11:09:23;20.80;99.90
52731;DHT22;38624;53.242;6.974;2023-05-09T11:11:51;20.70;99.90
52731;DHT22;38624;53.242;6.974;2023-05-09T11:14:30;20.50;99.90
52731;DHT22;38624;53.242;6.974;2023-05-09T11:16:57;20.30;99.90
52731;DHT22;38624;53.242;6.974;2023-05-09T11:22:26;20.10;99.90
52731;DHT22;38624;53.242;6.974;2023-05-09T11:25:00;20.00;99.90
52731;DHT22;38624;53.242;6.974;2023-05-09T11:27:27;19.90;99.90
52731;DHT22;38624;53.242;6.974;2023-05-09T11:29:54;19.90;99.90
52731;DHT22;38624;53.242;6.974;2023-05-09T11:32:19;19.80;99.90
52731;DHT22;38624;53.242;6.974;2023-05-09T11:34:45;19.70;99.90
52731;DHT22;38624;53.242;6.974;2023-05-09T11:37:12;19.60;99.90
52731;DHT22;38624;53.242;6.974;2023-05-09T11:39:54;19.60;99.90
52731;DHT22;38624;53.242;6.974;2023-05-09T11:42:22;19.60;99.90
52731;DHT22;38624;53.242;6.974;2023-05-09T11:44:47;19.60;99.90
52731;DHT22;38624;53.242;6.974;2023-05-09T11:47:13;19.50;99.90
52731;DHT22;38624;53.242;6.974;2023-05-09T11:49:42;19.40;99.90
52731;DHT22;38624;53.242;6.974;2023-05-09T11:52:08;19.30;99.90
52731;DHT22;38624;53.242;6.974;2023-05-09T11:54:35;19.30;99.90
52731;DHT22;38624;53.242;6.974;2023-05-09T11:57:01;19.30;99.90
52731;DHT22;38624;53.242;6.974;2023-05-09T11:59:27;19.30;99.90
52731;DHT22;38624;53.242;6.974;2023-05-09T12:01:52;19.40;99.90
52731;DHT22;38624;53.242;6.974;2023-05-09T12:04:18;19.30;99.90
52731;DHT22;38624;53.242;6.974;2023-05-09T12:06:47;19.40;99.90
52731;DHT22;38624;53.242;6.974;2023-05-09T12:09:15;19.50;99.90
52731;DHT22;38624;53.242;6.974;2023-05-09T12:11:47;19.60;99.90
52731;DHT22;38624;53.242;6.974;2023-05-09T12:14:29;19.70;99.90
52731;DHT22;38624;53.242;6.974;2023-05-09T12:16:55;19.70;99.90
52731;DHT22;38624;53.242;6.974;2023-05-09T12:19:24;19.80;99.90
52731;DHT22;38624;53.242;6.974;2023-05-09T12:21:53;20.00;99.90
52731;DHT22;38624;53.242;6.974;2023-05-09T12:24:19;20.30;99.90
52731;DHT22;38624;53.242;6.974;2023-05-09T12:26:46;20.60;99.90
52731;DHT22;38624;53.242;6.974;2023-05-09T12:29:12;20.90;99.90
52731;DHT22;38624;53.242;6.974;2023-05-09T12:31:38;21.30;99.90
52731;DHT22;38624;53.242;6.974;2023-05-09T12:34:03;21.40;99.90
52731;DHT22;38624;53.242;6.974;2023-05-09T12:36:32;21.50;99.90
52731;DHT22;38624;53.242;6.974;2023-05-09T12:38:58;21.50;99.90
52731;DHT22;38624;53.242;6.974;2023-05-09T12:41:24;21.30;99.90
52731;DHT22;38624;53.242;6.974;2023-05-09T12:43:49;21.30;99.90
52731;DHT22;38624;53.242;6.974;2023-05-09T12:46:19;21.20;99.90
52731;DHT22;38624;53.242;6.974;2023-05-09T12:48:45;21.10;99.90
52731;DHT22;38624;53.242;6.974;2023-05-09T12:51:18;21.60;99.90
52731;DHT22;38624;53.242;6.974;2023-05-09T12:53:46;21.00;99.90
52731;DHT22;38624;53.242;6.974;2023-05-09T12:56:16;20.90;99.90
52731;DHT22;38624;53.242;6.974;2023-05-09T13:01:14;20.90;99.90
52731;DHT22;38624;53.242;6.974;2023-05-09T13:03:40;20.80;99.90
52731;DHT22;38624;53.242;6.974;2023-05-09T13:06:10;20.70;99.90
52731;DHT22;38624;53.242;6.974;2023-05-09T13:08:37;20.50;99.90
52731;DHT22;38624;53.242;6.974;2023-05-09T13:11:02;20.30;99.90
52731;DHT22;38624;53.242;6.974;2023-05-09T13:13:29;20.00;99.90
52731;DHT22;38624;53.242;6.974;2023-05-09T13:15:55;19.70;99.90
52731;DHT22;38624;53.242;6.974;2023-05-09T13:18:22;18.80;99.90
52731;DHT22;38624;53.242;6.974;2023-05-09T13:20:51;18.40;99.90
52731;DHT22;38624;53.242;6.974;2023-05-09T13:23:17;18.10;99.90
52731;DHT22;38624;53.242;6.974;2023-05-09T13:25:42;17.70;99.90
52731;DHT22;38624;53.242;6.974;2023-05-09T13:28:08;17.50;99.90
52731;DHT22;38624;53.242;6.974;2023-05-09T13:30:34;16.90;99.90
52731;DHT22;38624;53.242;6.974;2023-05-09T13:32:59;16.90;99.90
52731;DHT22;38624;53.242;6.974;2023-05-09T13:35:25;16.80;99.90
52731;DHT22;38624;53.242;6.974;2023-05-09T13:37:51;17.00;99.90
52731;DHT22;38624;53.242;6.974;2023-05-09T13:40:17;17.10;99.90
52731;DHT22;38624;53.242;6.974;2023-05-09T13:42:43;17.30;99.90
52731;DHT22;38624;53.242;6.974;2023-05-09T13:45:08;17.40;99.90
52731;DHT22;38624;53.242;6.974;2023-05-09T13:47:34;17.50;99.90
52731;DHT22;38624;53.242;6.974;2023-05-09T13:50:01;17.60;99.90
52731;DHT22;38624;53.242;6.974;2023-05-09T13:52:26;17.80;99.90
52731;DHT22;38624;53.242;6.974;2023-05-09T13:54:52;18.00;99.90
52731;DHT22;38624;53.242;6.974;2023-05-09T13:57:18;18.10;99.90
52731;DHT22;38624;53.242;6.974;2023-05-09T13:59:43;18.30;99.90
52731;DHT22;38624;53.242;6.974;2023-05-09T14:02:09;18.50;99.90
52731;DHT22;38624;53.242;6.974;2023-05-09T14:04:37;18.70;99.90
52731;DHT22;38624;53.242;6.974;2023-05-09T14:07:03;18.60;99.90
52731;DHT22;38624;53.242;6.974;2023-05-09T14:09:29;18.60;99.90
52731;DHT22;38624;53.242;6.974;2023-05-09T14:11:55;18.70;99.90
52731;DHT22;38624;53.242;6.974;2023-05-09T14:14:22;18.60;99.90
52731;DHT22;38624;53.242;6.974;2023-05-09T14:16:47;18.50;99.90
52731;DHT22;38624;53.242;6.974;2023-05-09T14:19:14;18.50;99.90
52731;DHT22;38624;53.242;6.974;2023-05-09T14:21:40;18.40;99.90
52731;DHT22;38624;53.242;6.974;2023-05-09T14:24:07;18.50;99.90
52731;DHT22;38624;53.242;6.974;2023-05-09T14:26:32;18.50;99.90
52731;DHT22;38624;53.242;6.974;2023-05-09T14:28:58;18.50;99.90
52731;DHT22;38624;53.242;6.974;2023-05-09T14:31:23;18.50;99.90
52731;DHT22;38624;53.242;6.974;2023-05-09T14:33:49;18.50;99.90
52731;DHT22;38624;53.242;6.974;2023-05-09T14:36:15;18.50;99.90
52731;DHT22;38624;53.242;6.974;2023-05-09T14:38:40;18.50;99.90
52731;DHT22;38624;53.242;6.974;2023-05-09T14:41:07;18.50;99.90
52731;DHT22;38624;53.242;6.974;2023-05-09T14:43:33;18.60;99.90
52731;DHT22;38624;53.242;6.974;2023-05-09T14:45:59;18.60;99.90
52731;DHT22;38624;53.242;6.974;2023-05-09T14:48:24;18.70;99.90
52731;DHT22;38624;53.242;6.974;2023-05-09T14:50:50;18.60;99.90
52731;DHT22;38624;53.242;6.974;2023-05-09T14:53:20;18.70;99.90
52731;DHT22;38624;53.242;6.974;2023-05-09T14:55:47;18.60;99.90
52731;DHT22;38624;53.242;6.974;2023-05-09T14:58:12;18.60;99.90
52731;DHT22;38624;53.242;6.974;2023-05-09T15:00:38;18.50;99.90
52731;DHT22;38624;53.242;6.974;2023-05-09T15:03:04;18.50;99.90
52731;DHT22;38624;53.242;6.974;2023-05-09T15:05:29;18.50;99.90
52731;DHT22;38624;53.242;6.974;2023-05-09T15:07:55;18.50;99.90
52731;DHT22;38624;53.242;6.974;2023-05-09T15:10:20;18.60;99.90
52731;DHT22;38624;53.242;6.974;2023-05-09T15:12:46;18.60;99.90
52731;DHT22;38624;53.242;6.974;2023-05-09T15:17:37;18.80;99.90
52731;DHT22;38624;53.242;6.974;2023-05-09T15:20:03;18.80;99.90
52731;DHT22;38624;53.242;6.974;2023-05-09T15:22:28;18.80;99.90
52731;DHT22;38624;53.242;6.974;2023-05-09T15:25:00;18.70;99.90
52731;DHT22;38624;53.242;6.974;2023-05-09T15:27:27;18.70;99.90
52731;DHT22;38624;53.242;6.974;2023-05-09T15:29:53;18.60;99.90
52731;DHT22;38624;53.242;6.974;2023-05-09T15:32:19;18.40;99.90
52731;DHT22;38624;53.242;6.974;2023-05-09T15:34:45;18.30;99.90
52731;DHT22;38624;53.242;6.974;2023-05-09T15:37:10;18.20;99.90
52731;DHT22;38624;53.242;6.974;2023-05-09T15:39:36;18.10;99.90
52731;DHT22;38624;53.242;6.974;2023-05-09T15:42:06;18.10;99.90
52731;DHT22;38624;53.242;6.974;2023-05-09T15:44:33;18.10;99.90